Time;durP1;ratioP1;P1;durP2;ratioP2;P2;SDS_P1;SDS_P2;PMS_P1;PMS_P2;Temp;Humidity;BMP_temperature;BMP_pressure;BME280_temperature;BME280_humidity;BME280_pressure;Samples;Min_cycle;Max_cycle;Signal;HPM_P1;HPM_P2
2023/09/03 00:01:49;;;;;;;1.77;1.15;;;13.20;99.90;;;;;;5056972;28;20384;-78
2023/09/03 00:04:14;;;;;;;6.15;1.60;;;13.20;99.90;;;;;;5057031;28;20029;-77
2023/09/03 00:06:40;;;;;;;3.40;0.90;;;14.00;99.90;;;;;;5057444;28;20028;-79
2023/09/03 00:09:06;;;;;;;3.90;1.75;;;13.20;99.90;;;;;;5057300;28;20021;-79
2023/09/03 00:11:32;;;;;;;2.00;0.90;;;13.70;99.90;;;;;;5040782;28;20019;-78
2023/09/03 00:13:58;;;;;;;3.20;1.13;;;13.10;99.90;;;;;;5038780;28;20036;-78
2023/09/03 00:16:24;;;;;;;7.60;1.05;;;13.40;99.90;;;;;;5039207;28;20074;-77
2023/09/03 00:18:51;;;;;;;3.40;1.30;;;13.20;99.90;;;;;;5057444;28;20438;-77
2023/09/03 00:21:16;;;;;;;1.00;0.45;;;13.10;99.90;;;;;;5039584;28;20017;-78
2023/09/03 00:23:42;;;;;;;1.63;0.60;;;13.10;99.90;;;;;;5057346;28;20033;-77
2023/09/03 00:26:16;;;;;;;0.95;0.50;;;12.90;99.90;;;;;;5057260;28;20036;-79
2023/09/03 00:28:41;;;;;;;1.40;0.90;;;13.00;99.90;;;;;;5057409;28;20029;-78
2023/09/03 00:31:08;;;;;;;3.70;0.85;;;14.00;99.90;;;;;;5055362;28;20052;-75
2023/09/03 00:33:34;;;;;;;3.55;0.60;;;12.90;99.90;;;;;;5037614;28;20021;-75
2023/09/03 00:36:01;;;;;;;2.20;0.70;;;12.80;99.90;;;;;;5055241;28;20033;-75
2023/09/03 00:38:27;;;;;;;3.03;0.60;;;12.80;99.90;;;;;;5055337;28;20045;-76
2023/09/03 00:40:53;;;;;;;1.73;0.80;;;12.70;99.90;;;;;;5055734;28;20025;-76
2023/09/03 00:43:18;;;;;;;1.52;0.93;;;12.70;99.90;;;;;;5055253;28;20029;-75
2023/09/03 00:45:45;;;;;;;4.30;0.98;;;12.70;99.90;;;;;;5037207;28;20400;-75
2023/09/03 00:48:14;;;;;;;1.50;0.60;;;12.60;99.90;;;;;;5055203;28;20029;-75
2023/09/03 00:50:41;;;;;;;2.92;0.60;;;12.70;99.90;;;;;;5055116;28;20107;-75
2023/09/03 00:53:08;;;;;;;1.38;0.77;;;12.70;99.90;;;;;;5037120;28;20113;-75
2023/09/03 00:55:34;;;;;;;2.28;1.08;;;12.60;99.90;;;;;;5037120;28;20071;-75
2023/09/03 00:58:00;;;;;;;1.73;0.93;;;12.60;99.90;;;;;;5037158;28;20017;-75
2023/09/03 01:00:26;;;;;;;1.33;0.85;;;12.60;99.90;;;;;;5054808;28;20108;-75
2023/09/03 01:02:53;;;;;;;1.42;0.85;;;12.60;99.90;;;;;;5054756;28;20029;-75
2023/09/03 01:05:19;;;;;;;2.33;1.35;;;12.50;99.90;;;;;;5036945;28;20496;-75
2023/09/03 01:07:45;;;;;;;1.23;0.82;;;12.60;99.90;;;;;;5054845;28;20025;-75
2023/09/03 01:10:11;;;;;;;1.90;1.08;;;12.50;99.90;;;;;;5036693;28;20017;-75
2023/09/03 01:13:02;;;;;;;2.30;0.82;;;12.50;99.90;;;;;;5053602;28;20032;-75
2023/09/03 01:15:39;;;;;;;1.48;0.73;;;12.50;99.90;;;;;;5036627;28;20025;-75
2023/09/03 01:18:10;;;;;;;1.05;0.52;;;12.50;99.90;;;;;;5054420;28;20074;-75
2023/09/03 01:20:42;;;;;;;2.00;1.02;;;12.50;99.90;;;;;;5036646;28;20029;-75
2023/09/03 01:23:07;;;;;;;4.53;0.82;;;12.50;99.90;;;;;;5054466;28;20032;-75
2023/09/03 01:25:57;;;;;;;1.63;0.88;;;12.50;99.90;;;;;;5054467;28;20029;-75
2023/09/03 01:28:30;;;;;;;3.42;1.50;;;12.50;99.90;;;;;;5054843;28;20484;-77
2023/09/03 01:31:01;;;;;;;2.53;0.55;;;12.50;99.90;;;;;;5037385;28;20086;-77
2023/09/03 01:33:29;;;;;;;6.03;1.00;;;12.50;99.90;;;;;;5054489;28;20028;-76
2023/09/03 01:35:55;;;;;;;1.73;1.00;;;12.40;99.90;;;;;;5054552;28;20170;-76
2023/09/03 01:38:21;;;;;;;2.60;1.00;;;12.40;99.90;;;;;;5036357;28;20052;-77
2023/09/03 01:40:48;;;;;;;0.82;0.52;;;12.30;99.90;;;;;;5054592;28;20523;-77
2023/09/03 01:43:13;;;;;;;0.75;0.50;;;12.30;99.90;;;;;;5054561;28;20028;-76
2023/09/03 01:46:01;;;;;;;3.33;0.98;;;12.20;99.90;;;;;;5054283;28;20029;-76
2023/09/03 01:48:48;;;;;;;0.95;0.70;;;12.20;99.90;;;;;;5054195;28;20103;-76
2023/09/03 01:51:30;;;;;;;0.80;0.43;;;12.20;99.90;;;;;;5054720;28;20036;-76
2023/09/03 01:54:04;;;;;;;3.53;1.58;;;12.20;99.90;;;;;;5053921;28;20025;-76
2023/09/03 01:56:35;;;;;;;2.88;1.05;;;12.20;99.90;;;;;;5054135;28;20025;-76
2023/09/03 01:59:10;;;;;;;1.85;0.70;;;12.20;99.90;;;;;;5036372;28;20075;-76
2023/09/03 02:01:36;;;;;;;2.83;0.55;;;12.20;99.90;;;;;;5036336;28;20017;-76
2023/09/03 02:04:02;;;;;;;1.98;0.75;;;12.20;99.90;;;;;;5054329;28;20029;-76
2023/09/03 02:06:27;;;;;;;2.28;0.63;;;12.20;99.90;;;;;;5053964;28;20101;-76
2023/09/03 02:08:53;;;;;;;3.85;0.98;;;12.20;99.90;;;;;;5036486;28;20396;-76
2023/09/03 02:11:18;;;;;;;1.30;0.77;;;12.10;99.90;;;;;;5054162;28;20036;-76
2023/09/03 02:13:44;;;;;;;1.77;0.95;;;12.20;99.90;;;;;;5036153;28;20025;-77
2023/09/03 02:16:09;;;;;;;2.22;0.90;;;12.10;99.90;;;;;;5054190;28;20029;-76
2023/09/03 02:18:35;;;;;;;1.80;1.13;;;12.10;99.90;;;;;;5054051;28;20021;-76
2023/09/03 02:21:00;;;;;;;2.42;1.67;;;12.10;99.90;;;;;;5053890;28;20435;-76
2023/09/03 02:23:26;;;;;;;3.42;1.42;;;12.10;99.90;;;;;;5053739;28;20100;-76
2023/09/03 02:26:00;;;;;;;2.88;0.95;;;12.10;99.90;;;;;;5035961;28;20052;-77
2023/09/03 02:28:26;;;;;;;3.00;1.27;;;12.10;99.90;;;;;;5053816;28;20051;-76
2023/09/03 02:30:51;;;;;;;2.90;1.30;;;12.10;99.90;;;;;;5054161;28;20029;-77
2023/09/03 02:33:17;;;;;;;3.17;1.17;;;12.10;99.90;;;;;;5053516;28;20029;-76
2023/09/03 02:35:42;;;;;;;4.03;1.20;;;12.10;99.90;;;;;;5055405;28;20028;-77
2023/09/03 02:38:08;;;;;;;3.15;1.25;;;12.10;99.90;;;;;;5073616;28;20020;-76
2023/09/03 02:40:34;;;;;;;3.42;1.10;;;12.00;99.90;;;;;;5073570;28;20082;-76
2023/09/03 02:42:59;;;;;;;3.25;1.17;;;12.00;99.90;;;;;;5073970;28;20050;-76
2023/09/03 02:45:25;;;;;;;3.60;1.15;;;12.00;99.90;;;;;;5055509;28;20046;-76
2023/09/03 02:47:50;;;;;;;1.88;1.08;;;12.10;99.90;;;;;;5073777;28;20060;-76
2023/09/03 02:50:16;;;;;;;1.77;0.95;;;12.10;99.90;;;;;;5055651;28;20020;-76
2023/09/03 02:52:42;;;;;;;7.40;1.10;;;12.10;99.90;;;;;;5055509;28;20028;-76
2023/09/03 02:55:07;;;;;;;2.65;1.30;;;12.20;99.90;;;;;;5055385;28;20386;-76
2023/09/03 02:57:33;;;;;;;2.03;1.33;;;12.20;99.90;;;;;;5073732;28;20365;-76
2023/09/03 02:59:58;;;;;;;4.03;1.30;;;12.20;99.90;;;;;;5073414;28;20021;-76
2023/09/03 03:02:24;;;;;;;3.88;1.42;;;12.20;99.90;;;;;;5073145;28;20096;-77
2023/09/03 03:04:49;;;;;;;4.53;1.40;;;12.20;99.90;;;;;;5055147;28;20052;-77
2023/09/03 03:07:15;;;;;;;2.10;1.40;;;12.10;99.90;;;;;;5055164;28;20029;-76
2023/09/03 03:09:41;;;;;;;4.10;2.22;;;12.20;99.90;;;;;;5073287;28;20455;-76
2023/09/03 03:12:06;;;;;;;4.30;2.03;;;12.20;99.90;;;;;;5055348;28;20037;-76
2023/09/03 03:14:32;;;;;;;3.55;1.42;;;12.20;99.90;;;;;;5073176;28;20019;-76
2023/09/03 03:16:57;;;;;;;3.22;1.83;;;12.20;99.90;;;;;;5073784;28;20484;-74
2023/09/03 03:19:23;;;;;;;5.85;1.33;;;12.20;99.90;;;;;;5072972;28;20078;-73
2023/09/03 03:21:48;;;;;;;2.17;1.20;;;12.20;99.90;;;;;;5055004;28;20028;-73
2023/09/03 03:24:14;;;;;;;2.40;1.33;;;12.20;99.90;;;;;;5072790;28;20021;-73
2023/09/03 03:26:39;;;;;;;2.38;1.50;;;12.20;99.90;;;;;;5054858;28;20387;-73
2023/09/03 03:29:07;;;;;;;3.75;1.77;;;12.20;99.90;;;;;;5054996;28;20009;-73
2023/09/03 03:31:34;;;;;;;2.67;1.30;;;12.20;99.90;;;;;;5072824;28;20012;-73
2023/09/03 03:33:59;;;;;;;3.42;1.08;;;12.10;99.90;;;;;;5073290;28;20279;-73
2023/09/03 03:36:25;;;;;;;3.67;1.13;;;12.10;99.90;;;;;;5074909;28;20040;-73
2023/09/03 03:38:51;;;;;;;5.32;2.40;;;12.00;99.90;;;;;;5058609;28;20395;-73
2023/09/03 03:41:19;;;;;;;2.22;1.35;;;12.00;99.90;;;;;;5076767;28;20016;-73
2023/09/03 03:43:49;;;;;;;2.58;1.27;;;12.00;99.90;;;;;;5076778;28;20063;-73
2023/09/03 03:46:16;;;;;;;2.65;1.38;;;11.90;99.90;;;;;;5058362;28;20403;-73
2023/09/03 03:48:42;;;;;;;4.28;1.80;;;11.90;99.90;;;;;;5076393;28;20103;-73
2023/09/03 03:51:08;;;;;;;2.90;1.23;;;11.90;99.90;;;;;;5076279;28;20502;-73
2023/09/03 03:53:34;;;;;;;5.22;1.63;;;11.90;99.90;;;;;;5076132;28;20029;-73
2023/09/03 03:56:01;;;;;;;3.33;1.60;;;11.90;99.90;;;;;;5076139;28;20421;-73
2023/09/03 03:58:28;;;;;;;3.25;1.38;;;11.90;99.90;;;;;;5076404;28;20090;-73
2023/09/03 04:00:54;;;;;;;3.13;1.67;;;11.90;99.90;;;;;;5076181;28;20429;-73
2023/09/03 04:03:21;;;;;;;3.45;1.50;;;11.90;99.90;;;;;;5076051;28;20036;-73
2023/09/03 04:05:59;;;;;;;2.63;1.45;;;11.80;99.90;;;;;;5058014;28;20078;-73
2023/09/03 04:08:26;;;;;;;2.58;1.60;;;11.90;99.90;;;;;;5075959;28;20047;-73
2023/09/03 04:10:59;;;;;;;5.18;2.22;;;11.90;99.90;;;;;;5076036;28;20471;-73
2023/09/03 04:13:26;;;;;;;14.15;1.88;;;11.90;99.90;;;;;;5076403;28;20024;-75
2023/09/03 04:15:53;;;;;;;3.53;1.75;;;11.80;99.90;;;;;;5075810;28;20471;-75
2023/09/03 04:18:18;;;;;;;3.30;1.65;;;11.80;99.90;;;;;;5075640;28;20031;-75
2023/09/03 04:20:44;;;;;;;2.70;1.52;;;11.80;99.90;;;;;;5058291;28;20016;-75
2023/09/03 04:23:09;;;;;;;4.25;1.77;;;11.80;99.90;;;;;;5057692;28;20052;-75
2023/09/03 04:25:35;;;;;;;4.70;1.45;;;11.80;99.90;;;;;;5057606;28;20489;-75
2023/09/03 04:28:00;;;;;;;3.15;1.83;;;11.80;99.90;;;;;;5057427;28;20063;-75
2023/09/03 04:30:26;;;;;;;5.78;2.08;;;11.90;99.90;;;;;;5075399;28;20108;-75
2023/09/03 04:32:51;;;;;;;5.85;2.00;;;11.90;99.90;;;;;;5075841;28;20077;-75
2023/09/03 04:35:17;;;;;;;3.28;1.35;;;11.90;99.90;;;;;;5075210;28;20078;-75
2023/09/03 04:37:43;;;;;;;6.38;2.03;;;12.60;99.90;;;;;;5075477;28;20021;-75
2023/09/03 04:40:09;;;;;;;4.25;1.75;;;;;;;;;;5075235;28;20048;-75
2023/09/03 04:42:35;;;;;;;2.83;1.60;;;12.00;99.90;;;;;;5057293;28;20032;-75
2023/09/03 04:45:00;;;;;;;4.07;1.33;;;12.00;99.90;;;;;;5075054;28;20082;-75
2023/09/03 04:47:26;;;;;;;5.78;1.88;;;12.00;99.90;;;;;;5057108;28;20023;-75
2023/09/03 04:49:52;;;;;;;2.97;1.80;;;12.10;99.90;;;;;;5075305;28;20028;-75
2023/09/03 04:52:17;;;;;;;4.13;2.10;;;12.10;99.90;;;;;;5075039;28;20020;-75
2023/09/03 04:54:43;;;;;;;4.50;1.98;;;12.10;99.90;;;;;;5075370;28;20024;-75
2023/09/03 04:57:09;;;;;;;3.42;1.80;;;12.10;99.90;;;;;;5075383;28;20497;-78
2023/09/03 04:59:35;;;;;;;3.47;1.85;;;12.10;99.90;;;;;;5075495;28;20013;-77
2023/09/03 05:02:01;;;;;;;5.18;2.05;;;12.90;99.90;;;;;;5075758;28;20379;-78
2023/09/03 05:04:26;;;;;;;2.97;1.85;;;12.80;99.90;;;;;;5057869;28;20402;-77
2023/09/03 05:06:52;;;;;;;5.50;2.25;;;12.10;99.90;;;;;;5057781;28;20450;-77
2023/09/03 05:09:17;;;;;;;5.47;1.92;;;12.10;99.90;;;;;;5057851;28;20048;-77
2023/09/03 05:11:43;;;;;;;6.43;1.60;;;12.10;99.90;;;;;;5075388;28;20043;-77
2023/09/03 05:14:08;;;;;;;5.43;1.80;;;12.10;99.90;;;;;;5075844;28;20058;-77
2023/09/03 05:16:34;;;;;;;3.28;1.88;;;12.10;99.90;;;;;;5075302;28;20432;-77
2023/09/03 05:19:04;;;;;;;6.97;2.38;;;12.50;99.90;;;;;;5075790;28;20025;-77
2023/09/03 05:21:33;;;;;;;5.05;2.13;;;12.10;99.90;;;;;;5075816;28;20016;-77
2023/09/03 05:23:59;;;;;;;;;;;12.10;99.90;;;;;;5057849;28;20058;-78
2023/09/03 05:26:25;;;;;;;3.40;1.80;;;12.00;99.90;;;;;;5075281;28;19943;-77
2023/09/03 05:28:50;;;;;;;6.85;2.15;;;12.10;99.90;;;;;;5057565;28;20483;-77
2023/09/03 05:31:16;;;;;;;4.07;1.88;;;12.20;99.90;;;;;;5075741;28;20024;-77
2023/09/03 05:33:42;;;;;;;4.55;2.17;;;12.10;99.90;;;;;;5057333;28;20031;-78
2023/09/03 05:36:07;;;;;;;5.50;1.98;;;12.10;99.90;;;;;;5074358;28;20028;-77
2023/09/03 05:38:33;;;;;;;4.25;1.70;;;12.10;99.90;;;;;;5074261;28;20035;-77
2023/09/03 05:40:59;;;;;;;4.47;1.83;;;12.20;99.90;;;;;;5056461;28;20482;-77
2023/09/03 05:43:26;;;;;;;4.63;1.88;;;12.30;99.90;;;;;;5074701;28;20028;-77
2023/09/03 05:45:52;;;;;;;3.67;2.13;;;12.70;99.90;;;;;;5074125;28;20028;-77
2023/09/03 05:48:17;;;;;;;2.85;1.58;;;12.40;99.90;;;;;;5074015;28;20472;-77
2023/09/03 05:50:43;;;;;;;5.65;2.35;;;12.40;99.90;;;;;;5055855;28;20024;-78
2023/09/03 05:53:08;;;;;;;4.32;2.00;;;12.80;99.90;;;;;;5073884;28;20089;-78
2023/09/03 05:55:39;;;;;;;3.70;1.58;;;12.50;99.90;;;;;;5056024;28;20029;-77
2023/09/03 05:58:05;;;;;;;6.38;2.85;;;12.60;99.90;;;;;;5055933;28;20013;-79
2023/09/03 06:00:31;;;;;;;3.72;1.67;;;12.60;99.90;;;;;;5075481;28;20024;-78
2023/09/03 06:02:56;;;;;;;5.40;2.17;;;12.60;99.90;;;;;;5075706;28;20437;-78
2023/09/03 06:05:27;;;;;;;5.78;2.13;;;12.80;99.90;;;;;;5074441;28;20434;-77
2023/09/03 06:07:52;;;;;;;10.75;2.40;;;12.80;99.90;;;;;;5075164;28;20480;-78
2023/09/03 06:10:18;;;;;;;4.97;2.47;;;13.00;99.90;;;;;;5075224;28;20032;-78
2023/09/03 06:12:43;;;;;;;7.43;3.28;;;12.90;99.90;;;;;;5075120;28;20028;-77
2023/09/03 06:15:09;;;;;;;12.38;3.05;;;13.00;99.90;;;;;;5057024;28;20039;-78
2023/09/03 06:17:34;;;;;;;6.63;2.70;;;13.10;99.90;;;;;;5074720;28;20021;-78
2023/09/03 06:20:00;;;;;;;4.50;2.75;;;13.20;99.90;;;;;;5075341;28;20031;-77
2023/09/03 06:22:26;;;;;;;5.88;2.75;;;13.20;99.90;;;;;;5074417;28;20052;-77
2023/09/03 06:24:51;;;;;;;5.18;2.40;;;13.40;99.90;;;;;;5057474;28;20028;-78
2023/09/03 06:27:17;;;;;;;4.60;2.67;;;13.40;99.90;;;;;;5075112;28;20040;-78
2023/09/03 06:29:43;;;;;;;5.47;2.80;;;13.50;99.90;;;;;;5074863;28;20512;-78
2023/09/03 06:32:08;;;;;;;7.72;4.53;;;13.60;99.90;;;;;;5074167;28;20035;-78
2023/09/03 06:34:34;;;;;;;9.70;5.40;;;13.70;99.90;;;;;;5055900;28;20017;-78
2023/09/03 06:36:59;;;;;;;7.75;3.97;;;13.80;99.90;;;;;;5037501;28;1068216;-77
2023/09/03 06:39:26;;;;;;;7.43;4.10;;;13.80;99.90;;;;;;5074902;28;20023;-78
2023/09/03 06:41:51;;;;;;;9.18;4.43;;;13.90;99.90;;;;;;5057231;28;20107;-76
2023/09/03 06:44:17;;;;;;;8.10;4.60;;;14.10;99.90;;;;;;5074233;28;20052;-77
2023/09/03 06:46:43;;;;;;;7.88;4.35;;;14.20;99.90;;;;;;5074376;28;20025;-75
2023/09/03 06:49:08;;;;;;;9.00;4.72;;;14.30;99.90;;;;;;5055330;28;20020;-73
2023/09/03 06:51:34;;;;;;;12.05;4.47;;;14.40;99.90;;;;;;5055320;28;20464;-74
2023/09/03 06:53:59;;;;;;;8.50;3.83;;;14.40;99.90;;;;;;5073244;28;20407;-75
2023/09/03 06:56:25;;;;;;;10.98;4.75;;;14.60;99.90;;;;;;5073220;28;20017;-74
2023/09/03 06:58:50;;;;;;;9.07;4.30;;;14.70;99.90;;;;;;5073773;28;20036;-75
2023/09/03 07:01:17;;;;;;;7.18;3.95;;;14.80;99.90;;;;;;5055229;28;20017;-74
2023/09/03 07:03:43;;;;;;;12.13;4.32;;;14.80;99.90;;;;;;5073608;28;20020;-74
2023/09/03 07:06:08;;;;;;;10.60;3.70;;;15.00;99.90;;;;;;5073981;28;20027;-75
2023/09/03 07:08:34;;;;;;;11.05;5.07;;;15.00;99.90;;;;;;5055651;28;20031;-75
2023/09/03 07:11:00;;;;;;;8.63;4.53;;;15.10;99.90;;;;;;5074993;28;20029;-75
2023/09/03 07:13:25;;;;;;;7.53;4.07;;;15.20;99.90;;;;;;5077589;28;20114;-75
2023/09/03 07:15:51;;;;;;;7.88;4.55;;;15.30;99.90;;;;;;5077208;28;20021;-75
2023/09/03 07:18:16;;;;;;;10.68;4.18;;;15.40;99.90;;;;;;5058883;28;20056;-74
2023/09/03 07:20:42;;;;;;;8.68;3.88;;;15.50;99.90;;;;;;5076889;28;20550;-74
2023/09/03 07:23:08;;;;;;;8.05;3.80;;;15.60;99.90;;;;;;5077282;28;20372;-74
2023/09/03 07:25:35;;;;;;;9.10;3.95;;;15.70;99.90;;;;;;5077211;28;20027;-75
2023/09/03 07:28:01;;;;;;;6.70;4.05;;;15.90;99.90;;;;;;5058884;28;20480;-74
2023/09/03 07:30:27;;;;;;;8.85;4.22;;;15.90;99.90;;;;;;5076782;28;20021;-74
2023/09/03 07:32:52;;;;;;;7.80;3.75;;;15.90;99.90;;;;;;5077047;28;20039;-75
2023/09/03 07:35:18;;;;;;;6.72;4.30;;;16.00;99.90;;;;;;5076806;28;20020;-75
2023/09/03 07:37:44;;;;;;;8.90;4.30;;;16.00;99.90;;;;;;5058954;28;20078;-75
2023/09/03 07:40:10;;;;;;;8.70;4.13;;;16.10;99.90;;;;;;5058505;28;20035;-75
2023/09/03 07:42:35;;;;;;;7.40;3.67;;;16.10;99.90;;;;;;5076575;28;20479;-75
2023/09/03 07:45:02;;;;;;;6.80;4.15;;;16.20;99.90;;;;;;5058609;28;20091;-75
2023/09/03 07:47:27;;;;;;;7.85;4.15;;;16.20;99.90;;;;;;5076614;28;20024;-75
2023/09/03 07:49:53;;;;;;;7.10;3.60;;;16.30;99.90;;;;;;5076566;28;20104;-75
2023/09/03 07:52:19;;;;;;;5.88;3.92;;;16.30;99.90;;;;;;5058462;28;20056;-75
2023/09/03 07:54:44;;;;;;;6.30;3.95;;;16.40;99.90;;;;;;5058274;28;20017;-75
2023/09/03 07:57:10;;;;;;;6.40;3.55;;;16.40;99.90;;;;;;5058412;28;20431;-75
2023/09/03 07:59:36;;;;;;;7.68;4.03;;;16.50;99.90;;;;;;5058328;28;20044;-75
2023/09/03 08:02:02;;;;;;;8.23;4.13;;;16.50;99.90;;;;;;5076161;28;20020;-75
2023/09/03 08:04:28;;;;;;;7.55;4.65;;;16.50;99.90;;;;;;5058234;28;20021;-75
2023/09/03 08:06:54;;;;;;;5.72;3.40;;;16.60;99.90;;;;;;5076584;28;20020;-74
2023/09/03 08:09:23;;;;;;;6.43;3.75;;;17.00;99.90;;;;;;5058344;28;20077;-75
2023/09/03 08:11:49;;;;;;;7.47;3.47;;;16.70;99.90;;;;;;5075947;28;20024;-74
2023/09/03 08:14:15;;;;;;;6.53;3.75;;;16.90;99.90;;;;;;5075900;28;20027;-75
2023/09/03 08:16:40;;;;;;;7.03;3.97;;;17.00;99.90;;;;;;5076087;28;20020;-75
2023/09/03 08:19:06;;;;;;;6.57;3.35;;;17.10;99.90;;;;;;5058146;28;20016;-75
2023/09/03 08:21:31;;;;;;;7.82;3.38;;;17.30;99.90;;;;;;5075823;28;20035;-74
2023/09/03 08:23:57;;;;;;;8.00;3.67;;;17.40;99.90;;;;;;5076196;28;20498;-74
2023/09/03 08:26:23;;;;;;;5.03;2.60;;;17.60;99.90;;;;;;5057789;28;20013;-74
2023/09/03 08:28:48;;;;;;;5.55;3.15;;;17.70;99.90;;;;;;5075704;28;20024;-75
2023/09/03 08:31:14;;;;;;;4.88;3.05;;;17.80;99.90;;;;;;5075909;28;20033;-75
2023/09/03 08:33:40;;;;;;;4.38;2.92;;;17.90;99.90;;;;;;5075934;28;20035;-75
2023/09/03 08:36:06;;;;;;;5.20;3.15;;;18.00;99.90;;;;;;5076147;28;20036;-75
2023/09/03 08:38:32;;;;;;;4.95;3.08;;;18.50;99.90;;;;;;5057701;28;20077;-75
2023/09/03 08:40:58;;;;;;;4.55;2.92;;;18.40;99.90;;;;;;5075836;28;20062;-75
2023/09/03 08:43:26;;;;;;;7.28;2.88;;;18.50;99.90;;;;;;5057322;28;20525;-75
2023/09/03 08:45:56;;;;;;;4.53;3.03;;;18.70;99.90;;;;;;5057216;28;20158;-75
2023/09/03 08:48:22;;;;;;;7.22;2.90;;;18.80;99.90;;;;;;5075644;28;20494;-75
2023/09/03 08:50:48;;;;;;;5.35;2.45;;;18.90;99.90;;;;;;5075427;28;20036;-75
2023/09/03 08:53:15;;;;;;;3.45;2.03;;;19.00;99.90;;;;;;5075752;28;20502;-75
2023/09/03 08:55:41;;;;;;;2.85;2.35;;;19.00;99.90;;;;;;5057296;28;20036;-74
2023/09/03 08:58:07;;;;;;;4.53;2.25;;;19.10;99.90;;;;;;5075592;28;20024;-74
2023/09/03 09:00:34;;;;;;;2.03;1.48;;;19.20;99.90;;;;;;5075258;28;20465;-73
2023/09/03 09:03:01;;;;;;;3.95;1.42;;;19.30;99.90;;;;;;5075845;28;20034;-75
2023/09/03 09:05:27;;;;;;;2.38;1.40;;;19.40;99.90;;;;;;5075220;28;20103;-75
2023/09/03 09:07:53;;;;;;;7.32;0.88;;;19.60;99.90;;;;;;5075170;28;20463;-75
2023/09/03 09:10:28;;;;;;;2.30;0.55;;;19.60;99.90;;;;;;5075512;28;20056;-74
2023/09/03 09:13:02;;;;;;;1.23;0.35;;;19.80;99.90;;;;;;5075400;28;20078;-74
2023/09/03 09:15:27;;;;;;;2.90;0.40;;;19.90;99.90;;;;;;5075223;28;20024;-75
2023/09/03 09:17:53;;;;;;;0.20;0.10;;;20.10;99.90;;;;;;5057681;28;20103;-74
2023/09/03 09:20:19;;;;;;;0.95;0.20;;;20.20;99.90;;;;;;5075288;28;20021;-73
2023/09/03 09:22:49;;;;;;;3.00;0.55;;;20.30;99.90;;;;;;5075739;28;20033;-74
2023/09/03 09:25:22;;;;;;;2.47;0.20;;;20.50;99.90;;;;;;5074757;28;20023;-73
2023/09/03 09:27:49;;;;;;;1.20;0.30;;;20.50;99.90;;;;;;5075188;28;20107;-74
2023/09/03 09:30:19;;;;;;;2.22;0.20;;;20.50;99.90;;;;;;5074618;28;20545;-76
2023/09/03 09:32:45;;;;;;;0.70;0.15;;;20.50;99.90;;;;;;5056858;28;20028;-76
2023/09/03 09:35:25;;;;;;;0.22;0.00;;;20.60;99.90;;;;;;5074246;28;20475;-76
2023/09/03 09:37:51;;;;;;;1.20;0.00;;;20.80;99.90;;;;;;5075123;28;20021;-77
2023/09/03 09:40:28;;;;;;;0.22;0.00;;;21.00;99.90;;;;;;5075943;28;20027;-77
2023/09/03 09:42:55;;;;;;;1.30;0.00;;;21.00;99.90;;;;;;5057951;28;20024;-79
2023/09/03 09:45:21;;;;;;;0.30;0.20;;;21.20;99.90;;;;;;5074170;28;20031;-74
2023/09/03 09:48:01;;;;;;;0.40;0.17;;;21.40;99.90;;;;;;5074619;28;20029;-76
2023/09/03 09:50:37;;;;;;;0.00;0.00;;;21.40;99.90;;;;;;5074087;28;20559;-75
2023/09/03 09:53:04;;;;;;;0.03;0.00;;;21.50;99.90;;;;;;5056554;28;20027;-76
2023/09/03 09:55:32;;;;;;;0.10;0.00;;;21.50;99.90;;;;;;5074167;28;20031;-75
2023/09/03 09:57:58;;;;;;;2.45;0.25;;;21.70;99.90;;;;;;5057012;28;20028;-76
2023/09/03 10:00:38;;;;;;;0.68;0.00;;;21.90;99.90;;;;;;5055901;28;20045;-76
2023/09/03 10:03:10;;;;;;;0.52;0.00;;;22.70;99.90;;;;;;5056366;28;20029;-76
2023/09/03 10:05:37;;;;;;;0.45;0.00;;;22.20;99.90;;;;;;5055746;28;20119;-75
2023/09/03 10:08:03;;;;;;;0.00;0.00;;;22.30;99.90;;;;;;5056684;28;20021;-76
2023/09/03 10:10:29;;;;;;;0.20;0.00;;;22.40;99.90;;;;;;5056272;28;20480;-76
2023/09/03 10:12:55;;;;;;;0.05;0.00;;;22.40;99.90;;;;;;5056094;28;20028;-76
2023/09/03 10:15:22;;;;;;;0.52;0.10;;;22.40;99.90;;;;;;5074236;28;20035;-76
2023/09/03 10:17:51;;;;;;;1.40;0.00;;;22.40;99.90;;;;;;5073906;28;20017;-76
2023/09/03 10:20:19;;;;;;;0.75;0.00;;;22.50;99.90;;;;;;5074243;28;20112;-76
2023/09/03 10:22:53;;;;;;;0.05;0.00;;;22.50;99.90;;;;;;5074009;28;20085;-76
2023/09/03 10:25:26;;;;;;;1.05;0.00;;;22.50;99.90;;;;;;5056062;28;20052;-75
2023/09/03 10:27:59;;;;;;;1.02;0.00;;;22.60;99.90;;;;;;5074135;28;20098;-75
2023/09/03 10:30:37;;;;;;;0.00;0.00;;;22.90;99.90;;;;;;5073913;28;20033;-75
2023/09/03 10:33:04;;;;;;;0.52;0.00;;;23.20;99.90;;;;;;5074492;28;20028;-76
2023/09/03 10:35:30;;;;;;;0.20;0.00;;;23.30;99.90;;;;;;5073807;28;20036;-76
2023/09/03 10:37:55;;;;;;;0.45;0.00;;;23.40;99.90;;;;;;5074275;28;20021;-75
2023/09/03 10:40:22;;;;;;;0.10;0.00;;;23.50;99.90;;;;;;5073909;28;20025;-77
2023/09/03 10:43:15;;;;;;;0.47;0.00;;;23.50;99.90;;;;;;5056427;28;20051;-76
2023/09/03 10:46:06;;;;;;;0.00;0.00;;;23.60;99.90;;;;;;5060537;28;20051;-76
2023/09/03 10:48:34;;;;;;;0.00;0.00;;;23.60;99.90;;;;;;5056036;28;20025;-76
2023/09/03 10:51:01;;;;;;;0.82;0.00;;;23.60;99.90;;;;;;5074083;28;20108;-77
2023/09/03 10:53:40;;;;;;;0.10;0.00;;;23.70;99.90;;;;;;5074200;28;20024;-77
2023/09/03 10:56:17;;;;;;;0.73;0.00;;;23.80;99.90;;;;;;5074032;28;20073;-75
2023/09/03 10:58:56;;;;;;;0.15;0.00;;;24.00;99.90;;;;;;5056157;28;20368;-76
2023/09/03 11:01:43;;;;;;;1.45;0.25;;;24.10;99.90;;;;;;5074401;28;20025;-77
2023/09/03 11:04:09;;;;;;;0.98;0.00;;;24.20;99.90;;;;;;5073771;28;20181;-76
2023/09/03 11:06:35;;;;;;;0.00;0.00;;;24.30;99.90;;;;;;5074139;28;20091;-76
2023/09/03 11:09:09;;;;;;;0.40;0.00;;;24.20;99.90;;;;;;5055933;28;20016;-76
2023/09/03 11:11:35;;;;;;;2.03;0.40;;;24.40;99.90;;;;;;5074448;28;20102;-75
2023/09/03 11:14:01;;;;;;;0.10;0.00;;;24.50;99.90;;;;;;5074023;28;20025;-76
2023/09/03 11:16:31;;;;;;;0.00;0.00;;;24.70;99.90;;;;;;5055292;28;20124;-76
2023/09/03 11:18:58;;;;;;;0.45;0.00;;;24.70;98.80;;;;;;5055507;28;20029;-74
2023/09/03 11:21:27;;;;;;;0.10;0.00;;;24.80;99.90;;;;;;5073818;28;20021;-75
2023/09/03 11:24:05;;;;;;;0.00;0.00;;;25.00;99.90;;;;;;5073307;28;20535;-76
2023/09/03 11:26:32;;;;;;;0.00;0.00;;;25.00;98.10;;;;;;5073145;28;20048;-77
2023/09/03 11:28:59;;;;;;;0.00;0.00;;;25.10;99.70;;;;;;5055174;28;20442;-76
2023/09/03 11:31:26;;;;;;;0.83;0.00;;;25.30;99.80;;;;;;5073578;28;20522;-76
2023/09/03 11:33:52;;;;;;;1.55;0.15;;;25.50;98.10;;;;;;5073742;28;20050;-75
2023/09/03 11:36:21;;;;;;;0.38;0.10;;;25.60;98.50;;;;;;5073620;28;20028;-76
2023/09/03 11:38:49;;;;;;;0.10;0.00;;;25.80;98.60;;;;;;5055679;28;20020;-76
2023/09/03 11:41:17;;;;;;;0.30;0.00;;;26.00;98.00;;;;;;5073711;28;20032;-75
2023/09/03 11:43:42;;;;;;;0.00;0.00;;;26.00;96.80;;;;;;5055697;28;20028;-74
2023/09/03 11:46:16;;;;;;;0.00;0.00;;;26.00;97.40;;;;;;5073897;28;20468;-73
2023/09/03 11:48:49;;;;;;;0.00;0.00;;;27.30;98.50;;;;;;5073638;28;20081;-74
2023/09/03 11:51:22;;;;;;;0.00;0.00;;;26.00;96.60;;;;;;5073167;28;20028;-74
2023/09/03 11:53:49;;;;;;;0.57;0.10;;;26.00;94.40;;;;;;5072926;28;20036;-74
2023/09/03 11:56:17;;;;;;;1.45;0.10;;;26.10;95.30;;;;;;5073544;28;20103;-74
2023/09/03 11:58:44;;;;;;;0.00;0.00;;;26.10;95.30;;;;;;5059154;28;20073;-73
2023/09/03 12:01:12;;;;;;;0.60;0.00;;;26.00;94.30;;;;;;5077051;28;20099;-73
2023/09/03 12:03:38;;;;;;;0.00;0.00;;;26.00;94.60;;;;;;5058832;28;20020;-73
2023/09/03 12:06:04;;;;;;;0.00;0.00;;;26.10;95.60;;;;;;5076900;28;20031;-75
2023/09/03 12:08:32;;;;;;;0.10;0.00;;;26.10;95.50;;;;;;5058753;28;20123;-72
2023/09/03 12:10:58;;;;;;;0.03;0.00;;;26.10;95.10;;;;;;5076830;28;20028;-74
2023/09/03 12:13:34;;;;;;;0.00;0.00;;;26.00;94.50;;;;;;5058176;28;20377;-73
2023/09/03 12:16:10;;;;;;;0.00;0.00;;;25.70;95.40;;;;;;5076465;28;20040;-73
2023/09/03 12:18:37;;;;;;;0.45;0.00;;;25.60;96.90;;;;;;5076143;28;20013;-73
2023/09/03 12:21:07;;;;;;;0.00;0.00;;;25.60;97.70;;;;;;5058369;28;20483;-73
2023/09/03 12:23:34;;;;;;;0.00;0.00;;;25.60;96.60;;;;;;5076643;28;20024;-72
2023/09/03 12:26:00;;;;;;;0.10;0.00;;;25.70;96.60;;;;;;5076371;28;20078;-73
2023/09/03 12:28:39;;;;;;;0.75;0.00;;;26.00;96.30;;;;;;5077253;28;20024;-73
2023/09/03 12:31:06;;;;;;;0.10;0.00;;;26.00;96.00;;;;;;5058447;28;20066;-73
2023/09/03 12:33:32;;;;;;;0.00;0.00;;;26.00;94.40;;;;;;5076166;28;20461;-73
2023/09/03 12:36:08;;;;;;;0.10;0.10;;;26.10;95.90;;;;;;5058158;28;20048;-73
2023/09/03 12:38:47;;;;;;;0.15;0.00;;;26.00;93.60;;;;;;5058133;28;20025;-73
2023/09/03 12:41:13;;;;;;;0.00;0.00;;;25.80;95.20;;;;;;5058269;28;20062;-73
2023/09/03 12:43:39;;;;;;;0.30;0.08;;;25.80;96.50;;;;;;5058290;28;20032;-73
2023/09/03 12:46:04;;;;;;;0.00;0.00;;;25.90;94.10;;;;;;5075737;28;20021;-74
2023/09/03 12:48:30;;;;;;;0.85;0.00;;;25.90;95.30;;;;;;5076165;28;20067;-72
2023/09/03 12:50:56;;;;;;;0.10;0.00;;;25.90;95.30;;;;;;5075844;28;20329;-73